sensor_id;sensor_type;location;lat;lon;timestamp;P1;durP1;ratioP1;P2;durP2;ratioP2
21507;SDS011;10915;54.352;9.074;2023-07-29T00:00:42;6.57;;;5.03;;
21507;SDS011;10915;54.352;9.074;2023-07-29T00:03:08;6.93;;;5.10;;
21507;SDS011;10915;54.352;9.074;2023-07-29T00:05:34;7.40;;;6.13;;
21507;SDS011;10915;54.352;9.074;2023-07-29T00:08:01;8.27;;;5.40;;
21507;SDS011;10915;54.352;9.074;2023-07-29T00:10:27;5.77;;;4.40;;
21507;SDS011;10915;54.352;9.074;2023-07-29T00:12:52;8.87;;;6.73;;
21507;SDS011;10915;54.352;9.074;2023-07-29T00:15:18;9.33;;;5.50;;
21507;SDS011;10915;54.352;9.074;2023-07-29T00:17:44;7.43;;;6.00;;
21507;SDS011;10915;54.352;9.074;2023-07-29T00:20:09;13.97;;;7.87;;
21507;SDS011;10915;54.352;9.074;2023-07-29T00:22:35;8.93;;;6.67;;
21507;SDS011;10915;54.352;9.074;2023-07-29T00:25:00;9.37;;;7.10;;
21507;SDS011;10915;54.352;9.074;2023-07-29T00:27:26;10.10;;;7.00;;
21507;SDS011;10915;54.352;9.074;2023-07-29T00:29:52;9.67;;;6.47;;
21507;SDS011;10915;54.352;9.074;2023-07-29T00:32:17;8.50;;;6.60;;
21507;SDS011;10915;54.352;9.074;2023-07-29T00:34:43;9.77;;;7.50;;
21507;SDS011;10915;54.352;9.074;2023-07-29T00:37:09;9.07;;;7.83;;
21507;SDS011;10915;54.352;9.074;2023-07-29T00:39:35;9.30;;;7.30;;
21507;SDS011;10915;54.352;9.074;2023-07-29T00:42:02;8.57;;;7.67;;
21507;SDS011;10915;54.352;9.074;2023-07-29T00:44:28;10.50;;;8.50;;
21507;SDS011;10915;54.352;9.074;2023-07-29T00:46:53;9.83;;;8.00;;
21507;SDS011;10915;54.352;9.074;2023-07-29T00:49:20;11.87;;;8.27;;
21507;SDS011;10915;54.352;9.074;2023-07-29T00:51:46;12.37;;;10.37;;
21507;SDS011;10915;54.352;9.074;2023-07-29T00:54:12;13.80;;;11.03;;
21507;SDS011;10915;54.352;9.074;2023-07-29T00:56:39;11.67;;;9.33;;
21507;SDS011;10915;54.352;9.074;2023-07-29T00:59:05;12.53;;;8.60;;
21507;SDS011;10915;54.352;9.074;2023-07-29T01:01:31;11.43;;;9.30;;
21507;SDS011;10915;54.352;9.074;2023-07-29T01:03:57;10.20;;;8.33;;
21507;SDS011;10915;54.352;9.074;2023-07-29T01:06:41;11.57;;;10.00;;
21507;SDS011;10915;54.352;9.074;2023-07-29T01:09:21;13.57;;;10.10;;
21507;SDS011;10915;54.352;9.074;2023-07-29T01:12:18;12.63;;;10.10;;
21507;SDS011;10915;54.352;9.074;2023-07-29T01:14:51;11.40;;;9.33;;
21507;SDS011;10915;54.352;9.074;2023-07-29T01:17:26;13.97;;;10.50;;
21507;SDS011;10915;54.352;9.074;2023-07-29T01:22:28;16.10;;;11.50;;
21507;SDS011;10915;54.352;9.074;2023-07-29T01:24:56;14.23;;;10.83;;
21507;SDS011;10915;54.352;9.074;2023-07-29T01:27:22;15.63;;;12.70;;
21507;SDS011;10915;54.352;9.074;2023-07-29T01:29:48;14.67;;;10.93;;
21507;SDS011;10915;54.352;9.074;2023-07-29T01:32:17;12.87;;;10.20;;
21507;SDS011;10915;54.352;9.074;2023-07-29T01:35:05;17.67;;;12.37;;
21507;SDS011;10915;54.352;9.074;2023-07-29T01:37:42;22.30;;;12.67;;
21507;SDS011;10915;54.352;9.074;2023-07-29T01:40:13;15.73;;;11.97;;
21507;SDS011;10915;54.352;9.074;2023-07-29T01:42:40;17.00;;;12.83;;
21507;SDS011;10915;54.352;9.074;2023-07-29T01:45:06;17.90;;;13.03;;
21507;SDS011;10915;54.352;9.074;2023-07-29T01:47:31;16.93;;;12.27;;
21507;SDS011;10915;54.352;9.074;2023-07-29T01:49:57;17.23;;;12.27;;
21507;SDS011;10915;54.352;9.074;2023-07-29T01:52:23;17.33;;;12.87;;
21507;SDS011;10915;54.352;9.074;2023-07-29T01:54:48;17.20;;;12.43;;
21507;SDS011;10915;54.352;9.074;2023-07-29T01:57:14;17.67;;;13.03;;
21507;SDS011;10915;54.352;9.074;2023-07-29T01:59:39;16.17;;;11.63;;
21507;SDS011;10915;54.352;9.074;2023-07-29T02:02:05;15.13;;;11.00;;
21507;SDS011;10915;54.352;9.074;2023-07-29T02:04:31;14.97;;;11.23;;
21507;SDS011;10915;54.352;9.074;2023-07-29T02:06:56;25.20;;;15.20;;
21507;SDS011;10915;54.352;9.074;2023-07-29T02:09:22;24.37;;;13.97;;
21507;SDS011;10915;54.352;9.074;2023-07-29T02:11:48;19.00;;;13.93;;
21507;SDS011;10915;54.352;9.074;2023-07-29T02:14:13;23.20;;;15.33;;
21507;SDS011;10915;54.352;9.074;2023-07-29T02:16:39;23.77;;;15.07;;
21507;SDS011;10915;54.352;9.074;2023-07-29T02:19:04;24.40;;;16.33;;
21507;SDS011;10915;54.352;9.074;2023-07-29T02:21:30;24.17;;;15.73;;
21507;SDS011;10915;54.352;9.074;2023-07-29T02:23:55;25.37;;;16.43;;
21507;SDS011;10915;54.352;9.074;2023-07-29T02:26:22;21.73;;;16.10;;
21507;SDS011;10915;54.352;9.074;2023-07-29T02:28:47;18.27;;;14.53;;
21507;SDS011;10915;54.352;9.074;2023-07-29T02:33:46;17.37;;;13.57;;
21507;SDS011;10915;54.352;9.074;2023-07-29T02:36:12;22.57;;;16.40;;
21507;SDS011;10915;54.352;9.074;2023-07-29T02:38:39;23.13;;;17.63;;
21507;SDS011;10915;54.352;9.074;2023-07-29T02:41:05;25.73;;;17.33;;
21507;SDS011;10915;54.352;9.074;2023-07-29T02:43:31;26.47;;;16.97;;
21507;SDS011;10915;54.352;9.074;2023-07-29T02:45:57;29.30;;;17.53;;
21507;SDS011;10915;54.352;9.074;2023-07-29T02:48:22;22.17;;;16.67;;
21507;SDS011;10915;54.352;9.074;2023-07-29T02:50:48;23.67;;;17.40;;
21507;SDS011;10915;54.352;9.074;2023-07-29T02:53:13;18.80;;;14.37;;
21507;SDS011;10915;54.352;9.074;2023-07-29T02:55:39;21.33;;;14.70;;
21507;SDS011;10915;54.352;9.074;2023-07-29T02:58:06;20.73;;;14.67;;
21507;SDS011;10915;54.352;9.074;2023-07-29T03:00:32;20.77;;;14.03;;
21507;SDS011;10915;54.352;9.074;2023-07-29T03:02:58;24.97;;;15.67;;
21507;SDS011;10915;54.352;9.074;2023-07-29T03:05:24;26.23;;;16.53;;
21507;SDS011;10915;54.352;9.074;2023-07-29T03:07:53;22.53;;;15.20;;
21507;SDS011;10915;54.352;9.074;2023-07-29T03:10:19;21.97;;;13.83;;
21507;SDS011;10915;54.352;9.074;2023-07-29T03:12:45;26.10;;;16.73;;
21507;SDS011;10915;54.352;9.074;2023-07-29T03:15:11;30.67;;;17.50;;
21507;SDS011;10915;54.352;9.074;2023-07-29T03:17:37;23.37;;;15.87;;
21507;SDS011;10915;54.352;9.074;2023-07-29T03:20:03;28.20;;;17.13;;
21507;SDS011;10915;54.352;9.074;2023-07-29T03:22:29;26.73;;;16.97;;
21507;SDS011;10915;54.352;9.074;2023-07-29T03:24:55;39.17;;;18.57;;
21507;SDS011;10915;54.352;9.074;2023-07-29T03:27:20;30.17;;;17.13;;
21507;SDS011;10915;54.352;9.074;2023-07-29T03:29:46;32.00;;;16.47;;
21507;SDS011;10915;54.352;9.074;2023-07-29T03:32:12;32.40;;;16.80;;
21507;SDS011;10915;54.352;9.074;2023-07-29T03:34:38;29.40;;;17.37;;
21507;SDS011;10915;54.352;9.074;2023-07-29T03:37:05;31.80;;;18.33;;
21507;SDS011;10915;54.352;9.074;2023-07-29T03:39:31;27.73;;;15.87;;
21507;SDS011;10915;54.352;9.074;2023-07-29T03:41:57;26.00;;;15.77;;
21507;SDS011;10915;54.352;9.074;2023-07-29T03:44:23;30.17;;;16.73;;
21507;SDS011;10915;54.352;9.074;2023-07-29T03:46:49;34.33;;;18.40;;
21507;SDS011;10915;54.352;9.074;2023-07-29T03:49:14;30.43;;;17.67;;
21507;SDS011;10915;54.352;9.074;2023-07-29T03:51:40;28.10;;;16.67;;
21507;SDS011;10915;54.352;9.074;2023-07-29T03:54:06;22.20;;;14.73;;
21507;SDS011;10915;54.352;9.074;2023-07-29T03:56:31;31.40;;;17.80;;
21507;SDS011;10915;54.352;9.074;2023-07-29T03:59:03;27.23;;;17.33;;
21507;SDS011;10915;54.352;9.074;2023-07-29T04:01:30;32.73;;;18.47;;
21507;SDS011;10915;54.352;9.074;2023-07-29T04:03:56;27.33;;;16.43;;
21507;SDS011;10915;54.352;9.074;2023-07-29T06:36:50;10.83;;;7.83;;
21507;SDS011;10915;54.352;9.074;2023-07-29T06:42:45;10.97;;;8.40;;
21507;SDS011;10915;54.352;9.074;2023-07-29T06:48:36;9.10;;;7.80;;
21507;SDS011;10915;54.352;9.074;2023-07-29T06:51:31;8.23;;;7.20;;
21507;SDS011;10915;54.352;9.074;2023-07-29T07:10:18;10.30;;;8.33;;
21507;SDS011;10915;54.352;9.074;2023-07-29T07:20:40;11.43;;;9.53;;
21507;SDS011;10915;54.352;9.074;2023-07-29T07:26:25;9.90;;;8.43;;
21507;SDS011;10915;54.352;9.074;2023-07-29T07:28:53;11.33;;;9.40;;
21507;SDS011;10915;54.352;9.074;2023-07-29T07:34:37;13.97;;;10.50;;
21507;SDS011;10915;54.352;9.074;2023-07-29T07:37:52;13.83;;;10.80;;
21507;SDS011;10915;54.352;9.074;2023-07-29T08:05:55;12.67;;;10.50;;
21507;SDS011;10915;54.352;9.074;2023-07-29T08:18:49;11.17;;;9.57;;
21507;SDS011;10915;54.352;9.074;2023-07-29T08:22:10;13.20;;;10.37;;
21507;SDS011;10915;54.352;9.074;2023-07-29T08:31:15;10.87;;;9.37;;
21507;SDS011;10915;54.352;9.074;2023-07-29T09:01:56;15.90;;;9.53;;
21507;SDS011;10915;54.352;9.074;2023-07-29T09:05:20;10.60;;;8.40;;
21507;SDS011;10915;54.352;9.074;2023-07-29T09:51:16;7.00;;;5.73;;
21507;SDS011;10915;54.352;9.074;2023-07-29T09:56:27;5.83;;;4.70;;
21507;SDS011;10915;54.352;9.074;2023-07-29T09:59:59;8.17;;;4.60;;
21507;SDS011;10915;54.352;9.074;2023-07-29T10:05:18;4.87;;;3.37;;
21507;SDS011;10915;54.352;9.074;2023-07-29T10:11:43;8.50;;;6.70;;
21507;SDS011;10915;54.352;9.074;2023-07-29T10:14:09;7.17;;;4.03;;
21507;SDS011;10915;54.352;9.074;2023-07-29T10:16:36;4.63;;;3.30;;
21507;SDS011;10915;54.352;9.074;2023-07-29T10:19:03;4.50;;;3.37;;
21507;SDS011;10915;54.352;9.074;2023-07-29T10:21:29;4.97;;;2.97;;
21507;SDS011;10915;54.352;9.074;2023-07-29T10:23:55;6.20;;;3.37;;
21507;SDS011;10915;54.352;9.074;2023-07-29T10:26:25;5.33;;;3.23;;
21507;SDS011;10915;54.352;9.074;2023-07-29T10:28:53;5.87;;;3.87;;
21507;SDS011;10915;54.352;9.074;2023-07-29T10:31:26;8.43;;;3.97;;
21507;SDS011;10915;54.352;9.074;2023-07-29T10:33:54;7.70;;;4.30;;
21507;SDS011;10915;54.352;9.074;2023-07-29T10:36:20;7.07;;;3.60;;
21507;SDS011;10915;54.352;9.074;2023-07-29T10:38:46;4.77;;;3.73;;
21507;SDS011;10915;54.352;9.074;2023-07-29T10:41:11;6.37;;;4.07;;
21507;SDS011;10915;54.352;9.074;2023-07-29T10:43:37;6.90;;;4.13;;
21507;SDS011;10915;54.352;9.074;2023-07-29T10:46:20;5.17;;;3.57;;
21507;SDS011;10915;54.352;9.074;2023-07-29T10:51:31;7.13;;;5.13;;
21507;SDS011;10915;54.352;9.074;2023-07-29T10:54:13;9.10;;;6.10;;
21507;SDS011;10915;54.352;9.074;2023-07-29T10:56:40;9.63;;;6.17;;
21507;SDS011;10915;54.352;9.074;2023-07-29T11:01:42;6.17;;;4.73;;
21507;SDS011;10915;54.352;9.074;2023-07-29T11:17:33;7.80;;;4.77;;
21507;SDS011;10915;54.352;9.074;2023-07-29T11:20:01;7.27;;;4.30;;
21507;SDS011;10915;54.352;9.074;2023-07-29T11:22:28;8.33;;;4.50;;
21507;SDS011;10915;54.352;9.074;2023-07-29T11:24:54;9.07;;;4.60;;
21507;SDS011;10915;54.352;9.074;2023-07-29T11:27:20;5.73;;;4.30;;
21507;SDS011;10915;54.352;9.074;2023-07-29T11:29:46;7.50;;;4.20;;
21507;SDS011;10915;54.352;9.074;2023-07-29T11:32:12;5.90;;;3.80;;
21507;SDS011;10915;54.352;9.074;2023-07-29T11:34:38;7.63;;;3.60;;
21507;SDS011;10915;54.352;9.074;2023-07-29T11:37:05;7.20;;;3.60;;
21507;SDS011;10915;54.352;9.074;2023-07-29T11:39:39;5.90;;;3.07;;
21507;SDS011;10915;54.352;9.074;2023-07-29T11:42:15;10.30;;;4.27;;
21507;SDS011;10915;54.352;9.074;2023-07-29T11:44:41;6.27;;;3.40;;
21507;SDS011;10915;54.352;9.074;2023-07-29T11:47:11;6.10;;;2.90;;
21507;SDS011;10915;54.352;9.074;2023-07-29T11:49:40;5.67;;;3.70;;
21507;SDS011;10915;54.352;9.074;2023-07-29T11:52:09;5.63;;;2.93;;
21507;SDS011;10915;54.352;9.074;2023-07-29T11:54:37;8.40;;;3.63;;
21507;SDS011;10915;54.352;9.074;2023-07-29T11:57:04;5.80;;;2.80;;
21507;SDS011;10915;54.352;9.074;2023-07-29T11:59:34;6.53;;;3.33;;
21507;SDS011;10915;54.352;9.074;2023-07-29T12:02:01;8.03;;;3.50;;
21507;SDS011;10915;54.352;9.074;2023-07-29T12:04:37;6.97;;;3.50;;
21507;SDS011;10915;54.352;9.074;2023-07-29T12:07:05;5.07;;;3.00;;
21507;SDS011;10915;54.352;9.074;2023-07-29T12:09:31;4.80;;;2.53;;
21507;SDS011;10915;54.352;9.074;2023-07-29T12:11:57;5.03;;;2.77;;
21507;SDS011;10915;54.352;9.074;2023-07-29T12:14:27;6.43;;;3.60;;
21507;SDS011;10915;54.352;9.074;2023-07-29T12:16:53;4.70;;;2.47;;
21507;SDS011;10915;54.352;9.074;2023-07-29T12:19:19;6.00;;;2.83;;
21507;SDS011;10915;54.352;9.074;2023-07-29T12:21:47;8.33;;;2.87;;
21507;SDS011;10915;54.352;9.074;2023-07-29T12:24:13;9.63;;;3.57;;
21507;SDS011;10915;54.352;9.074;2023-07-29T12:26:40;6.87;;;3.23;;
21507;SDS011;10915;54.352;9.074;2023-07-29T12:29:16;5.90;;;2.93;;
21507;SDS011;10915;54.352;9.074;2023-07-29T12:31:44;5.73;;;3.03;;
21507;SDS011;10915;54.352;9.074;2023-07-29T12:34:16;9.30;;;3.40;;
21507;SDS011;10915;54.352;9.074;2023-07-29T12:36:47;7.87;;;3.43;;
21507;SDS011;10915;54.352;9.074;2023-07-29T12:39:24;8.60;;;3.27;;
21507;SDS011;10915;54.352;9.074;2023-07-29T12:42:05;5.93;;;2.93;;
21507;SDS011;10915;54.352;9.074;2023-07-29T12:44:40;7.30;;;3.50;;
21507;SDS011;10915;54.352;9.074;2023-07-29T12:47:06;8.33;;;3.50;;
21507;SDS011;10915;54.352;9.074;2023-07-29T12:49:33;4.83;;;2.77;;
21507;SDS011;10915;54.352;9.074;2023-07-29T12:51:59;5.07;;;3.07;;
21507;SDS011;10915;54.352;9.074;2023-07-29T12:54:25;7.80;;;3.40;;
21507;SDS011;10915;54.352;9.074;2023-07-29T12:56:51;6.50;;;2.67;;
21507;SDS011;10915;54.352;9.074;2023-07-29T12:59:16;7.07;;;2.50;;
21507;SDS011;10915;54.352;9.074;2023-07-29T13:01:42;6.60;;;3.10;;
21507;SDS011;10915;54.352;9.074;2023-07-29T13:04:09;7.90;;;3.10;;
21507;SDS011;10915;54.352;9.074;2023-07-29T13:06:35;4.90;;;2.70;;
21507;SDS011;10915;54.352;9.074;2023-07-29T13:09:00;4.87;;;2.53;;
21507;SDS011;10915;54.352;9.074;2023-07-29T13:11:26;8.50;;;2.67;;
21507;SDS011;10915;54.352;9.074;2023-07-29T13:13:51;7.13;;;3.33;;
21507;SDS011;10915;54.352;9.074;2023-07-29T13:16:17;4.80;;;2.40;;
21507;SDS011;10915;54.352;9.074;2023-07-29T13:18:43;5.27;;;2.53;;
21507;SDS011;10915;54.352;9.074;2023-07-29T13:21:09;4.03;;;1.80;;
21507;SDS011;10915;54.352;9.074;2023-07-29T13:23:35;3.60;;;2.07;;
21507;SDS011;10915;54.352;9.074;2023-07-29T13:26:01;4.03;;;2.57;;
21507;SDS011;10915;54.352;9.074;2023-07-29T13:28:26;6.87;;;2.37;;
21507;SDS011;10915;54.352;9.074;2023-07-29T13:30:52;7.57;;;2.97;;
21507;SDS011;10915;54.352;9.074;2023-07-29T13:33:18;5.17;;;2.07;;
21507;SDS011;10915;54.352;9.074;2023-07-29T13:35:43;6.17;;;2.83;;
21507;SDS011;10915;54.352;9.074;2023-07-29T13:38:09;6.20;;;2.27;;
21507;SDS011;10915;54.352;9.074;2023-07-29T13:40:35;5.20;;;2.50;;
21507;SDS011;10915;54.352;9.074;2023-07-29T13:43:01;5.90;;;3.00;;
21507;SDS011;10915;54.352;9.074;2023-07-29T13:45:27;5.17;;;2.17;;
21507;SDS011;10915;54.352;9.074;2023-07-29T13:47:52;4.77;;;2.73;;
21507;SDS011;10915;54.352;9.074;2023-07-29T13:50:18;4.67;;;2.30;;
21507;SDS011;10915;54.352;9.074;2023-07-29T13:52:44;8.90;;;3.53;;
21507;SDS011;10915;54.352;9.074;2023-07-29T13:55:10;7.17;;;2.33;;
21507;SDS011;10915;54.352;9.074;2023-07-29T13:57:36;4.67;;;2.13;;
21507;SDS011;10915;54.352;9.074;2023-07-29T14:00:02;5.30;;;2.80;;
21507;SDS011;10915;54.352;9.074;2023-07-29T14:02:28;6.23;;;2.43;;
21507;SDS011;10915;54.352;9.074;2023-07-29T14:04:56;7.13;;;2.57;;
21507;SDS011;10915;54.352;9.074;2023-07-29T14:07:21;6.20;;;2.60;;
21507;SDS011;10915;54.352;9.074;2023-07-29T14:09:47;5.80;;;2.13;;
21507;SDS011;10915;54.352;9.074;2023-07-29T14:12:12;8.23;;;3.00;;
21507;SDS011;10915;54.352;9.074;2023-07-29T14:14:40;5.67;;;2.40;;
21507;SDS011;10915;54.352;9.074;2023-07-29T14:17:06;4.03;;;1.63;;
21507;SDS011;10915;54.352;9.074;2023-07-29T14:19:33;7.90;;;2.27;;
21507;SDS011;10915;54.352;9.074;2023-07-29T14:21:59;5.20;;;2.13;;
21507;SDS011;10915;54.352;9.074;2023-07-29T14:24:25;4.83;;;2.10;;
21507;SDS011;10915;54.352;9.074;2023-07-29T14:26:51;5.17;;;1.90;;
21507;SDS011;10915;54.352;9.074;2023-07-29T14:29:16;3.10;;;1.20;;
21507;SDS011;10915;54.352;9.074;2023-07-29T14:31:42;3.20;;;1.67;;
21507;SDS011;10915;54.352;9.074;2023-07-29T14:34:07;6.03;;;1.93;;
21507;SDS011;10915;54.352;9.074;2023-07-29T14:36:34;3.83;;;1.47;;
21507;SDS011;10915;54.352;9.074;2023-07-29T14:38:59;4.30;;;1.60;;
21507;SDS011;10915;54.352;9.074;2023-07-29T14:41:25;3.33;;;1.57;;
21507;SDS011;10915;54.352;9.074;2023-07-29T14:43:50;3.93;;;2.07;;
21507;SDS011;10915;54.352;9.074;2023-07-29T14:46:16;3.77;;;1.73;;
21507;SDS011;10915;54.352;9.074;2023-07-29T14:48:41;4.53;;;1.50;;
21507;SDS011;10915;54.352;9.074;2023-07-29T14:51:07;4.67;;;1.57;;
21507;SDS011;10915;54.352;9.074;2023-07-29T14:53:33;3.63;;;1.47;;
21507;SDS011;10915;54.352;9.074;2023-07-29T14:55:58;3.47;;;1.60;;
21507;SDS011;10915;54.352;9.074;2023-07-29T14:58:24;5.20;;;1.90;;
21507;SDS011;10915;54.352;9.074;2023-07-29T15:00:50;7.47;;;2.23;;
21507;SDS011;10915;54.352;9.074;2023-07-29T15:03:17;4.13;;;1.67;;
21507;SDS011;10915;54.352;9.074;2023-07-29T15:05:42;7.40;;;1.90;;
21507;SDS011;10915;54.352;9.074;2023-07-29T15:08:08;6.03;;;1.90;;
21507;SDS011;10915;54.352;9.074;2023-07-29T15:10:34;3.93;;;1.90;;
21507;SDS011;10915;54.352;9.074;2023-07-29T15:13:00;3.43;;;1.60;;
21507;SDS011;10915;54.352;9.074;2023-07-29T15:15:25;6.53;;;2.20;;
21507;SDS011;10915;54.352;9.074;2023-07-29T15:17:51;4.87;;;2.00;;
21507;SDS011;10915;54.352;9.074;2023-07-29T15:20:17;4.20;;;1.83;;
21507;SDS011;10915;54.352;9.074;2023-07-29T15:22:42;4.40;;;2.00;;
21507;SDS011;10915;54.352;9.074;2023-07-29T15:25:08;6.27;;;1.90;;
21507;SDS011;10915;54.352;9.074;2023-07-29T15:27:34;6.40;;;1.90;;
21507;SDS011;10915;54.352;9.074;2023-07-29T15:30:00;5.03;;;2.17;;
21507;SDS011;10915;54.352;9.074;2023-07-29T15:32:26;4.73;;;1.70;;
21507;SDS011;10915;54.352;9.074;2023-07-29T15:34:53;8.37;;;2.17;;
21507;SDS011;10915;54.352;9.074;2023-07-29T15:37:18;4.83;;;1.97;;
21507;SDS011;10915;54.352;9.074;2023-07-29T15:39:44;5.83;;;2.30;;
21507;SDS011;10915;54.352;9.074;2023-07-29T15:42:09;5.40;;;1.90;;
21507;SDS011;10915;54.352;9.074;2023-07-29T15:44:35;5.47;;;2.10;;
21507;SDS011;10915;54.352;9.074;2023-07-29T15:47:02;4.97;;;2.00;;
21507;SDS011;10915;54.352;9.074;2023-07-29T15:49:28;7.67;;;2.03;;
21507;SDS011;10915;54.352;9.074;2023-07-29T15:51:53;6.03;;;2.40;;
21507;SDS011;10915;54.352;9.074;2023-07-29T15:54:19;6.43;;;2.60;;
21507;SDS011;10915;54.352;9.074;2023-07-29T15:56:44;3.90;;;1.80;;
21507;SDS011;10915;54.352;9.074;2023-07-29T15:59:10;5.80;;;1.87;;
21507;SDS011;10915;54.352;9.074;2023-07-29T16:01:36;4.43;;;1.77;;
21507;SDS011;10915;54.352;9.074;2023-07-29T16:04:01;3.80;;;1.60;;
21507;SDS011;10915;54.352;9.074;2023-07-29T16:06:27;4.00;;;2.33;;
21507;SDS011;10915;54.352;9.074;2023-07-29T16:08:53;3.70;;;1.90;;
21507;SDS011;10915;54.352;9.074;2023-07-29T16:11:19;4.80;;;2.03;;
21507;SDS011;10915;54.352;9.074;2023-07-29T16:13:45;7.63;;;2.40;;
21507;SDS011;10915;54.352;9.074;2023-07-29T16:31:50;3.47;;;1.83;;
21507;SDS011;10915;54.352;9.074;2023-07-29T16:41:09;4.17;;;1.80;;
21507;SDS011;10915;54.352;9.074;2023-07-29T16:49:24;5.50;;;2.43;;
21507;SDS011;10915;54.352;9.074;2023-07-29T17:07:02;3.87;;;2.30;;
21507;SDS011;10915;54.352;9.074;2023-07-29T17:13:16;6.67;;;2.33;;
21507;SDS011;10915;54.352;9.074;2023-07-29T17:22:33;7.47;;;3.23;;
21507;SDS011;10915;54.352;9.074;2023-07-29T17:40:29;5.87;;;3.00;;
21507;SDS011;10915;54.352;9.074;2023-07-29T17:43:37;8.17;;;2.70;;
21507;SDS011;10915;54.352;9.074;2023-07-29T17:46:09;6.47;;;3.10;;
21507;SDS011;10915;54.352;9.074;2023-07-29T17:48:49;10.37;;;3.40;;
21507;SDS011;10915;54.352;9.074;2023-07-29T17:57:28;9.27;;;3.70;;
21507;SDS011;10915;54.352;9.074;2023-07-29T18:04:20;6.93;;;2.97;;
21507;SDS011;10915;54.352;9.074;2023-07-29T18:07:03;6.07;;;3.37;;
21507;SDS011;10915;54.352;9.074;2023-07-29T18:10:14;7.50;;;3.23;;
21507;SDS011;10915;54.352;9.074;2023-07-29T18:44:49;7.67;;;4.63;;
21507;SDS011;10915;54.352;9.074;2023-07-29T18:54:26;21.37;;;5.70;;
21507;SDS011;10915;54.352;9.074;2023-07-29T18:57:07;7.93;;;3.90;;
21507;SDS011;10915;54.352;9.074;2023-07-29T19:19:02;7.97;;;3.63;;
21507;SDS011;10915;54.352;9.074;2023-07-29T19:59:47;9.60;;;3.67;;
21507;SDS011;10915;54.352;9.074;2023-07-29T20:16:14;5.67;;;3.30;;
21507;SDS011;10915;54.352;9.074;2023-07-29T20:19:05;8.80;;;4.13;;
21507;SDS011;10915;54.352;9.074;2023-07-29T20:24:58;9.50;;;4.50;;
21507;SDS011;10915;54.352;9.074;2023-07-29T20:37:00;7.07;;;4.47;;
21507;SDS011;10915;54.352;9.074;2023-07-29T20:46:44;8.03;;;4.37;;
21507;SDS011;10915;54.352;9.074;2023-07-29T20:52:23;12.03;;;4.30;;
21507;SDS011;10915;54.352;9.074;2023-07-29T20:55:06;9.90;;;4.00;;
